createdAt,value
2023-02-22T00:02:14.096Z,84.44
2023-02-22T00:04:42.078Z,84.49
2023-02-22T00:07:10.026Z,84.68
2023-02-22T00:09:37.822Z,84.66
2023-02-22T00:12:05.772Z,84.59
2023-02-22T00:14:33.640Z,84.68
2023-02-22T00:17:02.520Z,84.68
2023-02-22T00:19:31.076Z,84.73
2023-02-22T00:22:00.302Z,84.82
2023-02-22T00:24:29.557Z,84.87
2023-02-22T00:26:57.624Z,84.90
2023-02-22T00:29:26.516Z,84.86
2023-02-22T00:31:54.514Z,84.97
2023-02-22T00:34:24.154Z,85.11
2023-02-22T00:36:52.122Z,85.11
2023-02-22T00:39:20.388Z,85.18
2023-02-22T00:41:49.833Z,85.36
2023-02-22T00:44:17.865Z,85.16
2023-02-22T00:46:46.320Z,85.30
2023-02-22T00:49:17.049Z,85.35
2023-02-22T00:51:45.149Z,85.29
2023-02-22T00:54:14.411Z,85.42
2023-02-22T00:56:42.797Z,85.51
2023-02-22T00:59:10.675Z,85.59
2023-02-22T01:01:38.575Z,85.59
2023-02-22T01:04:06.916Z,85.56
2023-02-22T01:06:35.310Z,85.48
2023-02-22T01:09:04.727Z,85.47
2023-02-22T01:11:32.533Z,85.40
2023-02-22T01:14:02.210Z,85.46
2023-02-22T01:16:30.030Z,85.42
2023-02-22T01:18:57.848Z,85.48
2023-02-22T01:21:25.649Z,85.55
2023-02-22T01:23:55.685Z,85.61
2023-02-22T01:26:23.654Z,85.64
2023-02-22T01:28:51.441Z,85.79
2023-02-22T01:31:19.794Z,85.89
2023-02-22T01:33:47.866Z,85.81
2023-02-22T01:36:16.681Z,85.91
2023-02-22T01:38:45.534Z,86.06
2023-02-22T01:41:13.941Z,86.10
2023-02-22T01:43:41.793Z,85.99
2023-02-22T01:46:25.952Z,86.04
2023-02-22T01:48:59.789Z,86.16
2023-02-22T01:51:37.739Z,86.20
2023-02-22T01:54:33.470Z,86.20
2023-02-22T01:57:29.933Z,86.19
2023-02-22T02:00:10.176Z,86.29
2023-02-22T02:02:48.073Z,86.12
2023-02-22T02:05:20.446Z,86.12
2023-02-22T02:07:49.390Z,86.19
2023-02-22T02:10:17.994Z,86.04
2023-02-22T02:12:50.736Z,86.03
2023-02-22T02:15:32.361Z,85.97
2023-02-22T02:18:09.023Z,86.06
2023-02-22T02:20:50.579Z,86.09
2023-02-22T02:23:44.156Z,86.11
2023-02-22T02:26:42.361Z,86.12
2023-02-22T02:29:43.637Z,86.22
2023-02-22T02:32:30.274Z,86.23
2023-02-22T02:35:51.083Z,86.23
2023-02-22T02:38:46.160Z,86.41
2023-02-22T02:41:34.994Z,86.26
2023-02-22T02:44:13.152Z,86.35
2023-02-22T02:46:59.347Z,86.28
2023-02-22T02:49:58.443Z,86.21
2023-02-22T02:52:29.190Z,86.32
2023-02-22T02:54:58.544Z,86.41
2023-02-22T02:57:26.487Z,86.45
2023-02-22T02:59:54.265Z,86.46
2023-02-22T03:02:25.908Z,86.28
2023-02-22T03:05:45.249Z,85.99
2023-02-22T03:08:40.870Z,86.08
2023-02-22T03:11:42.730Z,86.28
2023-02-22T03:14:27.105Z,86.32
2023-02-22T03:17:16.756Z,86.35
2023-02-22T03:20:09.774Z,86.21
2023-02-22T03:22:54.562Z,86.28
2023-02-22T03:25:34.159Z,86.12
2023-02-22T03:28:11.859Z,86.27
2023-02-22T03:30:50.713Z,86.20
2023-02-22T03:33:34.020Z,86.21
2023-02-22T03:36:30.089Z,86.32
2023-02-22T03:39:01.114Z,86.18
2023-02-22T03:41:33.598Z,86.17
2023-02-22T03:44:11.837Z,86.36
2023-02-22T03:46:42.223Z,86.23
2023-02-22T03:49:35.122Z,86.17
2023-02-22T03:52:05.137Z,86.13
2023-02-22T03:54:35.041Z,86.21
2023-02-22T03:57:26.276Z,86.21
2023-02-22T04:00:07.395Z,86.32
2023-02-22T04:02:41.904Z,86.10
2023-02-22T04:05:10.771Z,86.07
2023-02-22T04:07:38.551Z,86.23
2023-02-22T04:10:11.046Z,86.23
2023-02-22T04:12:39.749Z,86.22
2023-02-22T04:15:12.363Z,86.10
2023-02-22T04:17:40.148Z,86.26
2023-02-22T04:20:11.692Z,86.25
2023-02-22T04:22:46.841Z,86.30
2023-02-22T04:25:16.064Z,86.34
2023-02-22T04:27:44.741Z,86.47
2023-02-22T04:30:13.388Z,86.45
2023-02-22T04:32:41.760Z,86.43
2023-02-22T04:35:10.002Z,86.45
2023-02-22T04:37:38.017Z,86.51
2023-02-22T04:40:08.901Z,86.48
2023-02-22T04:42:38.854Z,86.54
2023-02-22T04:45:09.551Z,86.51
2023-02-22T04:47:38.343Z,86.62
2023-02-22T04:50:09.553Z,86.50
2023-02-22T04:52:37.810Z,86.63
2023-02-22T04:55:07.515Z,86.63
2023-02-22T04:57:37.265Z,86.62
2023-02-22T05:00:06.384Z,86.54
2023-02-22T05:02:34.815Z,86.63
2023-02-22T05:05:02.664Z,86.45
2023-02-22T05:07:30.589Z,86.57
2023-02-22T05:09:58.802Z,86.33
2023-02-22T05:12:27.949Z,86.31
2023-02-22T05:14:55.756Z,86.40
2023-02-22T05:17:23.752Z,86.48
2023-02-22T05:19:51.527Z,86.62
2023-02-22T05:22:19.283Z,86.55
2023-02-22T05:24:47.124Z,86.49
2023-02-22T05:27:14.925Z,86.41
2023-02-22T05:29:42.703Z,86.53
2023-02-22T05:32:12.293Z,86.46
2023-02-22T05:34:40.597Z,86.43
2023-02-22T05:37:08.350Z,86.56
2023-02-22T05:39:36.176Z,86.55
2023-02-22T05:42:04.262Z,86.64
2023-02-22T05:44:32.026Z,86.67
2023-02-22T05:46:59.844Z,86.71
2023-02-22T05:49:27.716Z,86.75
2023-02-22T05:51:59.569Z,86.68
2023-02-22T05:54:27.318Z,86.65
2023-02-22T05:56:55.135Z,86.67
2023-02-22T05:59:22.954Z,86.81
2023-02-22T06:01:50.765Z,86.84
2023-02-22T06:04:18.597Z,87.00
2023-02-22T06:06:46.419Z,86.83
2023-02-22T06:09:14.249Z,86.93
2023-02-22T06:11:42.080Z,86.92
2023-02-22T06:14:10.078Z,87.02
2023-02-22T06:16:38.511Z,87.03
2023-02-22T06:19:06.325Z,87.12
2023-02-22T06:21:34.109Z,87.08
2023-02-22T06:24:04.512Z,87.13
2023-02-22T06:26:32.391Z,87.10
2023-02-22T06:29:00.253Z,87.25
2023-02-22T06:31:28.059Z,87.26
2023-02-22T06:33:56.361Z,87.45
2023-02-22T06:36:24.174Z,87.63
2023-02-22T06:38:52.102Z,87.53
2023-02-22T06:41:19.956Z,87.62
2023-02-22T06:43:48.637Z,87.67
2023-02-22T06:46:16.733Z,87.71
2023-02-22T06:48:44.545Z,87.69
2023-02-22T06:51:12.511Z,87.64
2023-02-22T06:53:40.395Z,87.65
2023-02-22T06:56:08.219Z,87.68
2023-02-22T06:58:36.020Z,87.64
2023-02-22T07:01:04.319Z,87.53
2023-02-22T07:03:32.225Z,87.50
2023-02-22T07:06:00.210Z,87.64
2023-02-22T07:08:29.097Z,87.67
2023-02-22T07:10:57.174Z,87.72
2023-02-22T07:13:25.246Z,87.68
2023-02-22T07:15:53.314Z,87.59
2023-02-22T07:18:21.224Z,87.64
2023-02-22T07:20:49.097Z,87.71
2023-02-22T07:23:18.453Z,87.82
2023-02-22T07:25:46.371Z,87.80
2023-02-22T07:28:14.315Z,87.79
2023-02-22T07:30:43.702Z,87.73
2023-02-22T07:33:14.019Z,87.83
2023-02-22T07:35:48.397Z,87.77
2023-02-22T07:38:20.305Z,87.71
2023-02-22T07:40:48.343Z,87.63
2023-02-22T07:43:25.957Z,87.79
2023-02-22T07:45:58.026Z,87.80
2023-02-22T07:48:30.077Z,87.61
2023-02-22T07:50:59.647Z,87.47
2023-02-22T07:53:32.512Z,87.51
2023-02-22T07:56:03.671Z,87.47
2023-02-22T07:58:32.904Z,87.44
2023-02-22T08:01:04.243Z,87.36
2023-02-22T08:03:37.841Z,87.45
2023-02-22T08:06:08.104Z,87.43
2023-02-22T08:08:35.935Z,87.61
2023-02-22T08:11:04.282Z,87.52
2023-02-22T08:13:32.873Z,87.33
2023-02-22T08:16:00.756Z,87.43
2023-02-22T08:18:28.565Z,87.52
2023-02-22T08:20:56.916Z,87.46
2023-02-22T08:23:27.094Z,87.51
2023-02-22T08:25:56.283Z,87.44
2023-02-22T08:28:25.362Z,87.37
2023-02-22T08:30:53.712Z,87.42
2023-02-22T08:33:21.978Z,87.45
2023-02-22T08:35:50.274Z,87.38
2023-02-22T08:38:31.094Z,87.23
2023-02-22T08:40:58.974Z,87.07
2023-02-22T08:43:28.556Z,86.87
2023-02-22T08:45:57.829Z,86.75
2023-02-22T08:48:25.839Z,86.76
2023-02-22T08:50:53.954Z,86.65
2023-02-22T08:53:21.805Z,86.53
2023-02-22T08:55:49.876Z,86.48
2023-02-22T08:58:17.770Z,86.29
2023-02-22T09:00:45.807Z,86.12
2023-02-22T09:03:15.509Z,85.87
2023-02-22T09:05:44.979Z,85.90
2023-02-22T09:08:13.424Z,85.85
2023-02-22T09:10:41.817Z,85.39
2023-02-22T09:13:09.668Z,85.50
2023-02-22T09:15:38.306Z,85.45
2023-02-22T09:18:09.507Z,85.65
2023-02-22T09:20:37.749Z,85.50
2023-02-22T09:23:09.667Z,85.43
2023-02-22T09:25:40.847Z,85.43
2023-02-22T09:28:09.324Z,85.48
2023-02-22T09:30:37.558Z,85.48
2023-02-22T09:33:14.645Z,85.50
2023-02-22T09:35:46.579Z,85.62
2023-02-22T09:38:19.428Z,85.76
2023-02-22T09:40:57.273Z,85.75
2023-02-22T09:43:43.111Z,85.80
2023-02-22T09:46:34.705Z,85.76
2023-02-22T09:49:15.570Z,85.50
2023-02-22T09:52:24.104Z,85.47
2023-02-22T09:55:17.852Z,85.24
2023-02-22T09:57:47.402Z,85.24
2023-02-22T10:00:22.716Z,85.34
2023-02-22T10:03:12.491Z,85.70
2023-02-22T10:05:46.458Z,85.64
2023-02-22T10:08:19.059Z,85.21
2023-02-22T10:11:19.704Z,85.19
2023-02-22T10:14:19.692Z,85.16
2023-02-22T10:17:19.846Z,85.34
2023-02-22T10:20:00.458Z,85.39
2023-02-22T10:23:00.940Z,85.41
2023-02-22T10:25:36.252Z,85.17
2023-02-22T10:28:15.930Z,85.11
2023-02-22T10:30:57.586Z,85.21
2023-02-22T10:33:34.772Z,85.37
2023-02-22T10:36:03.365Z,85.35
2023-02-22T10:38:34.630Z,85.13
2023-02-22T10:41:08.763Z,85.18
2023-02-22T10:43:42.934Z,85.22
2023-02-22T10:46:19.051Z,85.07
2023-02-22T10:48:55.064Z,85.13
2023-02-22T10:51:23.257Z,85.15
2023-02-22T10:54:14.189Z,85.28
2023-02-22T10:56:52.401Z,85.41
2023-02-22T10:59:42.053Z,85.52
2023-02-22T11:02:16.060Z,85.57
2023-02-22T11:04:51.430Z,85.53
2023-02-22T11:07:27.362Z,85.31
2023-02-22T11:10:09.518Z,85.36
2023-02-22T11:12:41.316Z,85.48
2023-02-22T11:15:24.334Z,85.67
2023-02-22T11:17:57.826Z,85.72
2023-02-22T11:20:39.348Z,85.53
2023-02-22T11:23:08.290Z,85.38
2023-02-22T11:25:40.485Z,85.67
2023-02-22T11:28:31.240Z,85.74
2023-02-22T11:31:14.607Z,85.80
2023-02-22T11:33:58.930Z,85.81
2023-02-22T11:36:40.412Z,85.53
2023-02-22T11:39:29.387Z,85.42
2023-02-22T11:41:57.395Z,85.40
2023-02-22T11:44:29.836Z,85.27
2023-02-22T11:47:07.075Z,85.10
2023-02-22T11:49:41.197Z,84.82
2023-02-22T11:52:34.750Z,84.54
2023-02-22T11:55:36.431Z,84.35
2023-02-22T11:58:33.563Z,84.36
2023-02-22T12:01:17.288Z,84.60
2023-02-22T12:04:10.583Z,84.25
2023-02-22T12:07:15.445Z,84.21
2023-02-22T12:10:05.606Z,83.44
2023-02-22T12:13:03.745Z,83.19
2023-02-22T12:15:56.295Z,83.28
2023-02-22T12:18:58.854Z,82.94
2023-02-22T12:21:30.214Z,80.95
2023-02-22T12:24:14.503Z,82.13
2023-02-22T12:26:49.012Z,81.86
2023-02-22T12:29:26.700Z,81.65
2023-02-22T12:32:10.356Z,81.52
2023-02-22T12:34:44.572Z,81.31
2023-02-22T12:37:25.051Z,81.19
2023-02-22T12:40:08.954Z,81.03
2023-02-22T12:43:05.381Z,81.00
2023-02-22T12:45:54.856Z,80.73
2023-02-22T12:48:44.512Z,80.68
2023-02-22T12:51:46.488Z,81.49
2023-02-22T12:54:46.332Z,81.16
2023-02-22T12:57:57.194Z,80.17
2023-02-22T13:00:36.762Z,79.88
2023-02-22T13:03:37.543Z,80.50
2023-02-22T13:06:49.625Z,79.94
2023-02-22T13:09:49.342Z,79.52
2023-02-22T13:12:53.639Z,79.54
2023-02-22T13:15:55.860Z,79.57
2023-02-22T13:18:45.010Z,79.82
2023-02-22T13:21:31.820Z,79.76
2023-02-22T13:24:58.507Z,80.25
2023-02-22T13:27:52.842Z,80.57
2023-02-22T13:30:38.214Z,80.76
2023-02-22T13:33:44.000Z,80.65
2023-02-22T13:36:38.804Z,80.65
2023-02-22T13:39:28.579Z,80.96
2023-02-22T13:42:34.819Z,81.27
2023-02-22T13:45:27.221Z,81.10
2023-02-22T13:48:39.442Z,81.11
2023-02-22T13:51:36.437Z,80.58
2023-02-22T13:54:34.636Z,80.86
2023-02-22T13:57:03.709Z,80.95
2023-02-22T13:59:37.164Z,80.72
2023-02-22T14:02:07.912Z,80.60
2023-02-22T14:04:41.033Z,79.86
2023-02-22T14:07:18.217Z,79.34
2023-02-22T14:09:56.758Z,79.26
2023-02-22T14:12:30.918Z,79.57
2023-02-22T14:15:26.543Z,78.64
2023-02-22T14:18:07.463Z,77.92
2023-02-22T14:20:38.252Z,78.20
2023-02-22T14:23:33.610Z,78.08
2023-02-22T14:26:19.829Z,77.90
2023-02-22T14:29:00.754Z,77.12
2023-02-22T14:31:46.567Z,76.98
2023-02-22T14:34:40.630Z,77.80
2023-02-22T14:37:17.654Z,76.49
2023-02-22T14:40:27.288Z,77.18
2023-02-22T14:43:19.851Z,77.36
2023-02-22T14:45:54.472Z,77.03
2023-02-22T14:48:39.260Z,77.28
2023-02-22T14:51:21.886Z,76.56
2023-02-22T14:53:59.984Z,76.87
2023-02-22T14:57:12.156Z,76.86
2023-02-22T15:00:22.726Z,77.35
2023-02-22T15:02:57.344Z,76.50
2023-02-22T15:05:30.438Z,76.85
2023-02-22T15:08:03.993Z,76.39
2023-02-22T15:10:43.164Z,75.11
2023-02-22T15:13:27.907Z,76.33
2023-02-22T15:16:01.789Z,76.04
2023-02-22T15:18:47.186Z,74.91
2023-02-22T15:21:24.049Z,74.51
2023-02-22T15:23:59.925Z,75.21
2023-02-22T15:26:52.025Z,75.09
2023-02-22T15:29:39.591Z,75.78
2023-02-22T15:32:30.500Z,75.49
2023-02-22T15:35:24.054Z,75.92
2023-02-22T15:38:04.116Z,75.48
2023-02-22T15:40:33.712Z,75.79
2023-02-22T15:43:08.588Z,75.41
2023-02-22T15:45:42.946Z,75.73
2023-02-22T15:48:12.063Z,75.95
2023-02-22T15:50:39.927Z,74.66
2023-02-22T15:53:28.812Z,74.42
2023-02-22T15:56:00.948Z,74.48
2023-02-22T15:58:30.027Z,74.36
2023-02-22T16:01:05.355Z,74.15
2023-02-22T16:03:51.856Z,73.89
2023-02-22T16:06:35.229Z,74.11
2023-02-22T16:09:30.352Z,73.31
2023-02-22T16:12:22.015Z,73.68
2023-02-22T16:14:52.452Z,73.83
2023-02-22T16:17:41.140Z,73.77
2023-02-22T16:20:14.389Z,74.40
2023-02-22T16:22:49.308Z,74.17
2023-02-22T16:25:21.588Z,73.89
2023-02-22T16:28:06.308Z,73.90
2023-02-22T16:30:37.712Z,73.80
2023-02-22T16:33:13.596Z,74.18
2023-02-22T16:35:51.804Z,73.53
2023-02-22T16:38:21.165Z,73.89
2023-02-22T16:40:54.909Z,73.94
2023-02-22T16:43:29.584Z,74.36
2023-02-22T16:45:58.356Z,73.97
2023-02-22T16:48:32.908Z,73.90
2023-02-22T16:51:09.204Z,73.81
2023-02-22T16:53:37.650Z,73.07
2023-02-22T16:56:11.756Z,72.86
2023-02-22T16:58:41.445Z,73.30
2023-02-22T17:01:09.985Z,73.05
2023-02-22T17:03:38.341Z,73.21
2023-02-22T17:06:07.186Z,72.04
2023-02-22T17:08:34.982Z,72.26
2023-02-22T17:11:04.134Z,72.73
2023-02-22T17:13:32.460Z,72.83
2023-02-22T17:16:00.304Z,72.88
2023-02-22T17:18:33.859Z,73.90
2023-02-22T17:21:03.443Z,73.48
2023-02-22T17:23:31.264Z,73.84
2023-02-22T17:26:04.650Z,74.35
2023-02-22T17:28:32.589Z,74.87
2023-02-22T17:31:01.964Z,75.06
2023-02-22T17:33:34.729Z,75.24
2023-02-22T17:36:05.290Z,75.53
2023-02-22T17:38:34.706Z,75.56
2023-02-22T17:41:03.341Z,75.53
2023-02-22T17:43:31.309Z,74.88
2023-02-22T17:45:59.453Z,75.17
2023-02-22T17:48:27.556Z,75.46
2023-02-22T17:50:56.111Z,75.63
2023-02-22T17:53:25.486Z,75.36
2023-02-22T17:55:53.605Z,74.69
2023-02-22T17:58:22.747Z,74.24
2023-02-22T18:00:51.786Z,74.71
2023-02-22T18:03:25.327Z,75.14
2023-02-22T18:05:59.986Z,75.33
2023-02-22T18:08:31.127Z,75.27
2023-02-22T18:11:03.350Z,75.61
2023-02-22T18:13:31.532Z,75.86
2023-02-22T18:16:00.218Z,75.96
2023-02-22T18:18:28.561Z,76.37
2023-02-22T18:20:59.805Z,76.50
2023-02-22T18:23:32.086Z,76.89
2023-02-22T18:26:11.746Z,77.02
2023-02-22T18:28:40.557Z,77.24
2023-02-22T18:31:17.084Z,77.36
2023-02-22T18:33:50.421Z,77.68
2023-02-22T18:36:23.283Z,77.74
2023-02-22T18:38:54.767Z,77.86
2023-02-22T18:41:25.367Z,78.09
2023-02-22T18:43:55.490Z,78.31
2023-02-22T18:46:24.652Z,78.43
2023-02-22T18:48:55.709Z,78.39
2023-02-22T18:51:25.702Z,78.57
2023-02-22T18:54:00.249Z,78.52
2023-02-22T18:56:30.226Z,78.49
2023-02-22T18:59:04.454Z,78.55
2023-02-22T19:01:39.123Z,78.56
2023-02-22T19:04:12.541Z,78.68
2023-02-22T19:06:41.314Z,78.69
2023-02-22T19:09:09.421Z,78.81
2023-02-22T19:11:37.525Z,78.97
2023-02-22T19:14:05.486Z,78.96
2023-02-22T19:16:33.550Z,78.97
2023-02-22T19:19:01.628Z,78.97
2023-02-22T19:21:31.877Z,79.18
2023-02-22T19:24:04.582Z,79.23
2023-02-22T19:26:32.600Z,79.41
2023-02-22T19:29:08.445Z,79.45
2023-02-22T19:31:36.556Z,79.62
2023-02-22T19:34:10.334Z,79.64
2023-02-22T19:36:45.872Z,79.62
2023-02-22T19:39:17.254Z,79.74
2023-02-22T19:41:46.018Z,79.75
2023-02-22T19:44:14.053Z,79.74
2023-02-22T19:46:42.162Z,79.72
2023-02-22T19:49:10.034Z,79.76
2023-02-22T19:51:38.012Z,79.83
2023-02-22T19:54:11.101Z,80.07
2023-02-22T19:56:38.949Z,80.06
2023-02-22T19:59:13.625Z,80.16
2023-02-22T20:01:45.682Z,80.32
2023-02-22T20:04:18.504Z,80.29
2023-02-22T20:06:54.649Z,80.34
2023-02-22T20:09:30.095Z,80.33
2023-02-22T20:11:58.775Z,80.25
2023-02-22T20:14:28.647Z,80.55
2023-02-22T20:16:58.813Z,80.54
2023-02-22T20:19:28.359Z,80.61
2023-02-22T20:21:56.849Z,80.63
2023-02-22T20:24:25.687Z,80.51
2023-02-22T20:26:55.850Z,80.56
2023-02-22T20:29:29.872Z,80.61
2023-02-22T20:32:00.605Z,80.74
2023-02-22T20:34:32.364Z,80.80
2023-02-22T20:37:01.326Z,80.85
2023-02-22T20:39:29.675Z,80.99
2023-02-22T20:42:00.447Z,81.05
2023-02-22T20:44:28.364Z,81.01
2023-02-22T20:46:56.264Z,80.97
2023-02-22T20:49:25.836Z,80.85
2023-02-22T20:51:53.722Z,80.80
2023-02-22T20:54:21.677Z,80.81
2023-02-22T20:56:52.657Z,80.93
2023-02-22T20:59:21.841Z,80.95
2023-02-22T21:01:50.461Z,80.87
2023-02-22T21:04:19.055Z,80.82
2023-02-22T21:06:46.934Z,80.69
2023-02-22T21:09:19.822Z,80.57
2023-02-22T21:11:47.938Z,80.63
2023-02-22T21:14:20.750Z,80.76
2023-02-22T21:16:51.611Z,80.97
2023-02-22T21:19:25.750Z,81.02
2023-02-22T21:22:01.500Z,80.99
2023-02-22T21:24:29.855Z,80.98
2023-02-22T21:27:01.120Z,80.96
2023-02-22T21:29:29.801Z,81.16
2023-02-22T21:31:58.636Z,81.20
2023-02-22T21:34:26.662Z,81.19
2023-02-22T21:36:54.779Z,81.27
2023-02-22T21:39:28.136Z,81.33
2023-02-22T21:42:00.713Z,81.38
2023-02-22T21:44:29.652Z,81.51
2023-02-22T21:46:57.695Z,81.47
2023-02-22T21:49:25.606Z,81.53
2023-02-22T21:51:53.847Z,81.45
2023-02-22T21:54:21.808Z,81.51
2023-02-22T21:56:50.563Z,81.66
2023-02-22T21:59:22.469Z,81.63
2023-02-22T22:01:55.855Z,81.62
2023-02-22T22:04:32.528Z,81.69
2023-02-22T22:07:02.330Z,81.83
2023-02-22T22:09:37.716Z,81.80
2023-02-22T22:12:06.157Z,81.87
2023-02-22T22:14:35.267Z,82.00
2023-02-22T22:17:07.048Z,82.04
2023-02-22T22:19:39.272Z,82.13
2023-02-22T22:22:08.140Z,82.11
2023-02-22T22:24:37.121Z,82.37
2023-02-22T22:27:06.560Z,82.39
2023-02-22T22:29:34.639Z,82.64
2023-02-22T22:32:03.700Z,82.65
2023-02-22T22:34:34.429Z,82.51
2023-02-22T22:37:03.071Z,82.68
2023-02-22T22:39:31.792Z,82.83
2023-02-22T22:41:59.777Z,83.12
2023-02-22T22:44:33.138Z,83.37
2023-02-22T22:47:01.453Z,83.39
2023-02-22T22:49:31.343Z,83.20
2023-02-22T22:51:59.226Z,83.36
2023-02-22T22:54:27.101Z,83.40
2023-02-22T22:56:54.858Z,83.28
2023-02-22T22:59:22.818Z,83.40
2023-02-22T23:01:52.268Z,83.91
2023-02-22T23:04:21.483Z,84.73
2023-02-22T23:06:52.814Z,84.68
2023-02-22T23:09:34.733Z,84.89
2023-02-22T23:12:17.597Z,85.16
2023-02-22T23:14:45.813Z,85.04
2023-02-22T23:17:26.879Z,85.39
2023-02-22T23:19:54.888Z,85.13
2023-02-22T23:22:23.080Z,84.96
2023-02-22T23:24:50.946Z,84.56
2023-02-22T23:27:19.223Z,84.50
2023-02-22T23:29:47.201Z,84.35
2023-02-22T23:32:15.260Z,84.35
2023-02-22T23:34:43.209Z,84.44
2023-02-22T23:37:13.623Z,84.28
2023-02-22T23:39:42.426Z,84.41
2023-02-22T23:42:10.256Z,84.28
2023-02-22T23:44:39.811Z,84.19
2023-02-22T23:47:07.685Z,84.07
2023-02-22T23:49:38.027Z,84.01
2023-02-22T23:52:08.515Z,83.95
2023-02-22T23:54:40.394Z,83.90
2023-02-22T23:57:08.879Z,83.98
2023-02-22T23:59:40.386Z,83.94
